Terminal Aerodrome Forecast
Issued by NWS

Home | Current Version | Previous Version | Text Only | Print | Product List | Glossary On
Versions: 1 2 3 4 5 6 7 8 9 10 11 12 13 14 15 16 17 18 19 20
000
FTUS45 KGJT 262340
TAFTEX
TAF
KTEX 262340Z 2700/2724 27007KT P6SM SCT035 OVC050
     FM270300 14006KT P6SM BKN070
     FM271700 18012G24KT P6SM VCSH BKN045
     FM272200 19008G18KT 6SM -SHRASN BKN025=

USA.gov is the U.S. government's official web portal to all federal, state and local government web resources and services.